createdAt,value
2023-06-25T00:00:19.401Z,32.70
2023-06-25T00:02:52.070Z,32.90
2023-06-25T00:05:25.626Z,33.60
2023-06-25T00:08:00.923Z,34.10
2023-06-25T00:10:35.802Z,34.50
2023-06-25T00:13:11.058Z,34.80
2023-06-25T00:15:44.189Z,35.60
2023-06-25T00:18:17.491Z,36.00
2023-06-25T00:20:51.868Z,36.20
2023-06-25T00:23:28.333Z,36.10
2023-06-25T00:26:01.821Z,36.20
2023-06-25T00:28:35.087Z,36.60
2023-06-25T00:31:08.553Z,36.80
2023-06-25T00:33:41.749Z,37.20
2023-06-25T00:36:14.857Z,37.90
2023-06-25T00:38:50.816Z,38.70
2023-06-25T00:41:24.240Z,39.40
2023-06-25T00:43:58.116Z,39.80
2023-06-25T00:46:32.887Z,40.20
2023-06-25T00:49:08.123Z,40.70
2023-06-25T00:51:42.755Z,40.80
2023-06-25T00:54:18.371Z,40.30
2023-06-25T00:56:52.018Z,40.20
2023-06-25T00:59:26.921Z,39.80
2023-06-25T01:02:05.973Z,39.90
2023-06-25T01:04:45.384Z,39.80
2023-06-25T01:07:25.538Z,39.90
2023-06-25T01:10:04.369Z,39.70
2023-06-25T01:12:38.419Z,39.10
2023-06-25T01:15:15.048Z,39.60
2023-06-25T01:17:51.694Z,40.20
2023-06-25T01:20:25.115Z,41.10
2023-06-25T01:23:01.534Z,42.00
2023-06-25T01:25:34.950Z,42.60
2023-06-25T01:28:09.112Z,43.00
2023-06-25T01:30:42.339Z,43.20
2023-06-25T01:33:21.894Z,42.90
2023-06-25T01:35:55.765Z,42.70
2023-06-25T01:38:32.087Z,41.40
2023-06-25T01:41:05.823Z,40.60
2023-06-25T01:43:39.035Z,39.70
2023-06-25T01:46:12.220Z,38.10
2023-06-25T01:48:45.561Z,37.80
2023-06-25T01:51:19.734Z,36.80
2023-06-25T01:53:55.122Z,35.60
2023-06-25T01:56:28.022Z,35.70
2023-06-25T01:59:01.235Z,35.40
2023-06-25T02:01:34.510Z,35.30
2023-06-25T02:04:09.571Z,34.50
2023-06-25T02:06:42.804Z,34.50
2023-06-25T02:09:19.042Z,34.20
2023-06-25T02:11:53.714Z,33.70
2023-06-25T02:14:27.514Z,33.70
2023-06-25T02:17:01.068Z,33.50
2023-06-25T02:19:34.401Z,33.30
2023-06-25T02:22:07.438Z,32.80
2023-06-25T02:24:42.960Z,32.70
2023-06-25T02:27:17.309Z,32.50
2023-06-25T02:29:51.403Z,32.30
2023-06-25T02:32:24.684Z,31.50
2023-06-25T02:34:58.002Z,31.40
2023-06-25T02:37:32.719Z,31.20
2023-06-25T02:40:08.988Z,31.10
2023-06-25T02:42:44.057Z,31.10
2023-06-25T02:45:19.884Z,30.60
2023-06-25T02:47:54.435Z,30.60
2023-06-25T02:50:28.058Z,30.70
2023-06-25T02:53:02.115Z,30.60
2023-06-25T02:55:41.675Z,30.60
2023-06-25T02:58:15.619Z,30.70
2023-06-25T03:00:50.425Z,31.00
2023-06-25T03:03:23.910Z,31.40
2023-06-25T03:05:57.311Z,31.50
2023-06-25T03:08:32.846Z,31.70
2023-06-25T03:11:09.922Z,31.40
2023-06-25T03:13:43.654Z,32.10
2023-06-25T03:16:17.094Z,32.50
2023-06-25T03:18:50.815Z,33.00
2023-06-25T03:21:24.878Z,33.30
2023-06-25T03:24:00.776Z,33.20
2023-06-25T03:26:36.790Z,33.20
2023-06-25T03:29:10.632Z,33.50
2023-06-25T03:31:47.614Z,33.80
2023-06-25T03:34:24.739Z,34.10
2023-06-25T03:37:02.055Z,34.10
2023-06-25T03:39:35.909Z,34.30
2023-06-25T03:42:14.513Z,34.10
2023-06-25T03:44:52.503Z,33.80
2023-06-25T03:47:32.860Z,33.60
2023-06-25T03:50:08.309Z,33.70
2023-06-25T03:52:42.952Z,33.80
2023-06-25T03:55:16.902Z,34.20
2023-06-25T03:57:53.565Z,34.70
2023-06-25T04:00:28.234Z,34.70
2023-06-25T04:03:01.653Z,34.40
2023-06-25T04:05:36.344Z,34.60
2023-06-25T04:08:12.877Z,35.00
2023-06-25T04:10:55.118Z,35.00
2023-06-25T04:13:32.480Z,34.70
2023-06-25T04:16:06.420Z,34.90
2023-06-25T04:18:40.250Z,34.50
2023-06-25T04:21:13.665Z,34.30
2023-06-25T04:23:46.983Z,34.20
2023-06-25T04:26:19.949Z,34.20
2023-06-25T04:28:55.848Z,34.20
2023-06-25T04:31:30.955Z,34.40
2023-06-25T04:34:04.543Z,34.50
2023-06-25T04:36:38.321Z,34.50
2023-06-25T04:39:12.787Z,35.00
2023-06-25T04:41:47.771Z,35.10
2023-06-25T04:44:24.144Z,35.50
2023-06-25T04:46:57.578Z,35.70
2023-06-25T04:49:30.798Z,35.80
2023-06-25T04:52:04.325Z,35.10
2023-06-25T04:54:39.124Z,35.00
2023-06-25T04:57:12.763Z,35.10
2023-06-25T04:59:50.217Z,35.40
2023-06-25T05:02:23.890Z,35.50
2023-06-25T05:04:57.626Z,35.50
2023-06-25T05:07:31.174Z,35.40
2023-06-25T05:10:05.171Z,35.30
2023-06-25T05:12:39.165Z,35.00
2023-06-25T05:15:15.604Z,34.70
2023-06-25T05:17:50.031Z,34.60
2023-06-25T05:20:24.629Z,34.50
2023-06-25T05:22:58.235Z,34.60
2023-06-25T05:25:31.639Z,34.50
2023-06-25T05:28:07.616Z,34.10
2023-06-25T05:30:43.615Z,34.20
2023-06-25T05:33:17.624Z,34.30
2023-06-25T05:35:51.204Z,34.20
2023-06-25T05:38:24.731Z,34.20
2023-06-25T05:40:58.782Z,34.20
2023-06-25T05:43:32.503Z,34.30
2023-06-25T05:46:08.395Z,34.20
2023-06-25T05:48:42.448Z,34.40
2023-06-25T05:51:19.960Z,34.70
2023-06-25T05:53:57.800Z,34.60
2023-06-25T05:56:31.769Z,34.60
2023-06-25T05:59:05.119Z,34.50
2023-06-25T06:01:41.122Z,33.10
2023-06-25T06:04:14.856Z,32.60
2023-06-25T06:06:48.181Z,32.80
2023-06-25T06:09:23.023Z,32.70
2023-06-25T06:11:56.727Z,33.20
2023-06-25T06:14:34.088Z,33.70
2023-06-25T06:17:12.815Z,34.00
2023-06-25T06:19:47.484Z,34.60
2023-06-25T06:22:21.273Z,34.60
2023-06-25T06:24:55.160Z,34.60
2023-06-25T06:27:28.424Z,34.70
2023-06-25T06:30:02.411Z,34.50
2023-06-25T06:32:37.579Z,34.40
2023-06-25T06:35:12.793Z,34.10
2023-06-25T06:37:47.978Z,34.10
2023-06-25T06:40:22.057Z,34.30
2023-06-25T06:42:55.778Z,34.40
2023-06-25T06:45:30.157Z,34.50
2023-06-25T06:48:07.528Z,34.50
2023-06-25T06:50:42.473Z,34.60
2023-06-25T06:53:15.834Z,34.90
2023-06-25T06:55:50.964Z,34.90
2023-06-25T06:58:24.949Z,35.00
2023-06-25T07:00:58.887Z,34.90
2023-06-25T07:03:35.467Z,34.70
2023-06-25T07:06:08.902Z,34.80
2023-06-25T07:08:42.171Z,34.70
2023-06-25T07:11:20.104Z,34.80
2023-06-25T07:13:53.873Z,35.00
2023-06-25T07:16:30.031Z,34.80
2023-06-25T07:19:05.592Z,34.40
2023-06-25T07:21:40.956Z,34.20
2023-06-25T07:24:14.894Z,34.10
2023-06-25T07:26:48.081Z,33.90
2023-06-25T07:29:21.296Z,34.10
2023-06-25T07:31:55.338Z,34.40
2023-06-25T07:34:30.550Z,34.50
2023-06-25T07:37:04.183Z,34.40
2023-06-25T07:39:38.209Z,34.60
2023-06-25T07:42:13.700Z,35.00
2023-06-25T07:44:56.592Z,35.10
2023-06-25T07:47:32.528Z,35.00
2023-06-25T07:50:09.636Z,35.00
2023-06-25T07:52:42.806Z,35.20
2023-06-25T07:55:16.842Z,35.20
2023-06-25T07:57:50.254Z,35.00
2023-06-25T08:00:24.411Z,34.90
2023-06-25T08:02:58.287Z,35.00
2023-06-25T08:05:35.862Z,34.90
2023-06-25T08:08:11.313Z,35.10
2023-06-25T08:10:44.882Z,35.10
2023-06-25T08:13:18.799Z,35.10
2023-06-25T08:15:52.268Z,35.20
2023-06-25T08:18:25.638Z,35.40
2023-06-25T08:21:01.246Z,35.00
2023-06-25T08:23:35.250Z,34.90
2023-06-25T08:26:11.781Z,35.00
2023-06-25T08:28:47.825Z,34.60
2023-06-25T08:31:22.728Z,34.40
2023-06-25T08:33:56.512Z,34.30
2023-06-25T08:36:31.384Z,34.30
2023-06-25T08:39:04.203Z,34.20
2023-06-25T08:41:37.462Z,33.90
2023-06-25T08:44:11.449Z,33.90
2023-06-25T08:46:51.272Z,33.90
2023-06-25T08:49:28.893Z,33.80
2023-06-25T08:52:08.503Z,33.80
2023-06-25T08:54:43.032Z,33.50
2023-06-25T08:57:17.937Z,33.60
2023-06-25T08:59:51.280Z,33.60
2023-06-25T09:02:24.913Z,33.60
2023-06-25T09:05:07.180Z,33.60
2023-06-25T09:07:49.680Z,33.70
2023-06-25T09:10:25.044Z,33.50
2023-06-25T09:12:59.080Z,33.50
2023-06-25T09:15:35.186Z,33.60
2023-06-25T09:18:09.502Z,33.60
2023-06-25T09:20:52.911Z,33.50
2023-06-25T09:23:31.207Z,33.50
2023-06-25T09:26:12.785Z,33.40
2023-06-25T09:28:54.247Z,33.30
2023-06-25T09:31:27.799Z,33.50
2023-06-25T09:34:01.563Z,33.60
2023-06-25T09:36:39.490Z,33.70
2023-06-25T09:39:16.685Z,33.80
2023-06-25T09:41:51.368Z,33.70
2023-06-25T09:44:27.965Z,33.80
2023-06-25T09:47:08.018Z,33.80
2023-06-25T09:49:43.900Z,33.70
2023-06-25T09:52:19.005Z,33.80
2023-06-25T09:54:56.076Z,33.90
2023-06-25T09:57:30.587Z,33.80
2023-06-25T10:00:04.360Z,33.90
2023-06-25T10:02:44.594Z,34.00
2023-06-25T10:05:18.921Z,34.00
2023-06-25T10:07:52.646Z,33.90
2023-06-25T10:10:31.702Z,33.70
2023-06-25T10:13:08.470Z,33.60
2023-06-25T10:15:42.385Z,33.60
2023-06-25T10:18:16.845Z,33.50
2023-06-25T10:20:52.416Z,33.50
2023-06-25T10:23:29.980Z,33.60
2023-06-25T10:26:06.804Z,33.70
2023-06-25T10:28:40.715Z,33.80
2023-06-25T10:31:23.510Z,33.70
2023-06-25T10:34:07.073Z,33.70
2023-06-25T10:36:40.853Z,33.70
2023-06-25T10:39:15.833Z,33.50
2023-06-25T10:41:52.015Z,33.20
2023-06-25T10:44:32.457Z,33.20
2023-06-25T10:47:10.704Z,33.20
2023-06-25T10:49:44.406Z,33.30
2023-06-25T10:52:19.759Z,33.20
2023-06-25T10:54:53.637Z,33.20
2023-06-25T10:57:30.496Z,33.30
2023-06-25T11:00:05.954Z,33.40
2023-06-25T11:02:39.773Z,33.10
2023-06-25T11:05:14.046Z,32.80
2023-06-25T11:07:47.654Z,32.60
2023-06-25T11:10:20.940Z,32.50
2023-06-25T11:12:56.242Z,32.50
2023-06-25T11:15:29.604Z,32.40
2023-06-25T11:18:05.839Z,32.50
2023-06-25T11:20:39.811Z,32.60
2023-06-25T11:23:15.414Z,32.50
2023-06-25T11:25:49.384Z,32.40
2023-06-25T11:28:28.856Z,32.30
2023-06-25T11:31:04.307Z,32.20
2023-06-25T11:33:37.720Z,32.20
2023-06-25T11:36:16.404Z,32.10
2023-06-25T11:38:50.222Z,32.20
2023-06-25T11:41:34.373Z,32.10
2023-06-25T11:44:20.532Z,32.10
2023-06-25T11:46:56.679Z,32.10
2023-06-25T11:49:31.834Z,32.10
2023-06-25T11:52:09.652Z,32.20
2023-06-25T11:54:42.994Z,32.20
2023-06-25T11:57:18.687Z,32.20
2023-06-25T11:59:53.861Z,32.00
2023-06-25T12:02:40.611Z,32.00
2023-06-25T12:05:18.428Z,31.90
2023-06-25T12:07:51.978Z,32.00
2023-06-25T12:10:25.869Z,31.90
2023-06-25T12:12:58.718Z,31.90
2023-06-25T12:15:34.363Z,31.90
2023-06-25T12:18:07.701Z,31.90
2023-06-25T12:20:42.551Z,31.80
2023-06-25T12:23:16.557Z,31.80
2023-06-25T12:25:49.476Z,31.80
2023-06-25T12:28:22.339Z,31.80
2023-06-25T12:30:58.170Z,31.80
2023-06-25T12:33:33.090Z,31.90
2023-06-25T12:36:06.590Z,31.90
2023-06-25T12:38:40.518Z,32.00
2023-06-25T12:41:15.237Z,32.00
2023-06-25T12:43:49.848Z,32.00
2023-06-25T12:46:24.932Z,31.80
2023-06-25T12:48:58.216Z,31.50
2023-06-25T12:51:33.763Z,31.20
2023-06-25T12:54:07.479Z,31.10
2023-06-25T12:56:41.268Z,31.00
2023-06-25T12:59:15.149Z,31.00
2023-06-25T13:01:51.188Z,30.90
2023-06-25T13:04:24.959Z,30.90
2023-06-25T13:06:58.934Z,30.70
2023-06-25T13:09:33.251Z,30.60
2023-06-25T13:12:08.697Z,30.40
2023-06-25T13:14:45.068Z,30.30
2023-06-25T13:17:21.557Z,30.20
2023-06-25T13:19:55.221Z,30.10
2023-06-25T13:22:29.391Z,30.00
2023-06-25T13:25:02.981Z,29.90
2023-06-25T13:27:38.155Z,30.00
2023-06-25T13:30:12.480Z,30.00
2023-06-25T13:32:48.119Z,30.00
2023-06-25T13:35:21.768Z,30.00
2023-06-25T13:37:56.839Z,30.00
2023-06-25T13:40:30.377Z,29.90
2023-06-25T13:43:03.991Z,29.80
2023-06-25T13:45:37.101Z,29.70
2023-06-25T13:48:13.601Z,29.50
2023-06-25T13:50:47.792Z,29.30
2023-06-25T13:53:21.743Z,29.30
2023-06-25T13:55:56.666Z,29.30
2023-06-25T13:58:31.127Z,29.30
2023-06-25T14:01:06.151Z,29.40
2023-06-25T14:03:42.020Z,29.50
2023-06-25T14:06:15.152Z,29.50
2023-06-25T14:08:48.632Z,29.50
2023-06-25T14:11:26.156Z,29.60
2023-06-25T14:13:59.081Z,29.70
2023-06-25T14:16:34.383Z,29.80
2023-06-25T14:19:24.780Z,29.80
2023-06-25T14:22:02.743Z,29.80
2023-06-25T14:24:36.019Z,29.90
2023-06-25T14:27:09.499Z,30.00
2023-06-25T14:29:43.028Z,30.00
2023-06-25T14:32:16.837Z,29.90
2023-06-25T14:34:51.843Z,29.90
2023-06-25T14:37:24.907Z,30.00
2023-06-25T14:39:58.666Z,30.10
2023-06-25T14:42:35.055Z,30.00
2023-06-25T14:45:08.615Z,30.00
2023-06-25T14:47:42.990Z,30.00
2023-06-25T14:50:18.784Z,30.00
2023-06-25T14:52:54.046Z,29.90
2023-06-25T14:55:37.876Z,29.90
2023-06-25T14:58:14.073Z,29.80
2023-06-25T15:00:47.521Z,29.80
2023-06-25T15:03:21.086Z,29.80
2023-06-25T15:06:08.398Z,29.80
2023-06-25T15:08:42.669Z,28.90
2023-06-25T15:11:16.576Z,28.70
2023-06-25T15:13:53.374Z,28.70
2023-06-25T15:16:28.664Z,28.60
2023-06-25T15:19:04.355Z,28.60
2023-06-25T15:21:40.057Z,28.70
2023-06-25T15:24:14.676Z,28.60
2023-06-25T15:26:50.242Z,28.60
2023-06-25T15:29:23.464Z,28.70
2023-06-25T15:31:56.462Z,28.70
2023-06-25T15:34:29.393Z,28.60
2023-06-25T15:37:05.512Z,28.70
2023-06-25T15:39:39.115Z,28.70
2023-06-25T15:42:12.523Z,28.80
2023-06-25T15:44:45.845Z,28.80
2023-06-25T15:47:19.700Z,28.90
2023-06-25T15:49:55.126Z,28.90
2023-06-25T15:52:30.800Z,29.00
2023-06-25T15:55:06.024Z,29.00
2023-06-25T15:57:42.418Z,28.90
2023-06-25T16:00:16.310Z,28.90
2023-06-25T16:02:49.706Z,28.90
2023-06-25T16:05:23.813Z,29.10
2023-06-25T16:08:00.167Z,29.30
2023-06-25T16:10:33.495Z,29.40
2023-06-25T16:13:08.010Z,29.50
2023-06-25T16:15:44.773Z,29.60
2023-06-25T16:18:19.390Z,29.60
2023-06-25T16:20:53.054Z,29.60
2023-06-25T16:23:28.798Z,29.60
2023-06-25T16:26:02.801Z,29.60
2023-06-25T16:28:40.350Z,29.70
2023-06-25T16:31:14.307Z,29.70
2023-06-25T16:33:49.264Z,29.70
2023-06-25T16:36:22.611Z,29.60
2023-06-25T16:38:59.349Z,29.60
2023-06-25T16:41:33.063Z,29.60
2023-06-25T16:44:06.396Z,29.60
2023-06-25T16:46:42.882Z,29.60
2023-06-25T16:49:17.860Z,29.70
2023-06-25T16:51:51.710Z,29.60
2023-06-25T16:54:27.014Z,29.70
2023-06-25T16:57:02.949Z,29.80
2023-06-25T16:59:36.231Z,29.90
2023-06-25T17:02:10.087Z,29.80
2023-06-25T17:04:44.477Z,29.80
2023-06-25T17:07:18.011Z,29.80
2023-06-25T17:09:54.820Z,29.80
2023-06-25T17:12:28.385Z,29.80
2023-06-25T17:15:03.098Z,29.80
2023-06-25T17:17:36.751Z,29.80
2023-06-25T17:20:11.155Z,29.80
2023-06-25T17:22:44.810Z,29.80
2023-06-25T17:25:20.510Z,29.70
2023-06-25T17:27:54.384Z,29.60
2023-06-25T17:30:27.858Z,29.70
2023-06-25T17:33:01.725Z,29.70
2023-06-25T17:35:35.846Z,29.70
2023-06-25T17:38:09.523Z,29.80
2023-06-25T17:40:45.188Z,29.70
2023-06-25T17:43:22.296Z,29.80
2023-06-25T17:45:55.997Z,29.80
2023-06-25T17:48:30.439Z,29.70
2023-06-25T17:51:04.233Z,29.70
2023-06-25T17:53:40.209Z,29.70
2023-06-25T17:56:15.845Z,29.80
2023-06-25T17:58:49.486Z,29.80
2023-06-25T18:01:23.942Z,29.70
2023-06-25T18:03:57.573Z,29.80
2023-06-25T18:06:31.077Z,29.80
2023-06-25T18:09:04.329Z,29.80
2023-06-25T18:11:39.800Z,29.80
2023-06-25T18:14:13.500Z,29.70
2023-06-25T18:16:47.604Z,29.80
2023-06-25T18:19:22.796Z,29.70
2023-06-25T18:21:56.482Z,29.70
2023-06-25T18:24:30.541Z,29.70
2023-06-25T18:27:06.069Z,29.60
2023-06-25T18:29:39.445Z,29.60
2023-06-25T18:32:13.956Z,29.50
2023-06-25T18:34:47.678Z,29.50
2023-06-25T18:37:24.705Z,29.40
2023-06-25T18:40:00.982Z,29.40
2023-06-25T18:42:37.788Z,29.30
2023-06-25T18:45:15.049Z,29.30
2023-06-25T18:47:50.916Z,29.30
2023-06-25T18:50:25.622Z,29.30
2023-06-25T18:52:58.956Z,29.30
2023-06-25T18:55:33.009Z,29.30
2023-06-25T18:58:08.221Z,29.30
2023-06-25T19:00:43.799Z,29.30
2023-06-25T19:03:18.608Z,29.20
2023-06-25T19:05:52.437Z,29.20
2023-06-25T19:08:27.993Z,29.20
2023-06-25T19:11:01.684Z,29.10
2023-06-25T19:13:39.140Z,29.10
2023-06-25T19:16:13.137Z,29.00
2023-06-25T19:18:47.669Z,29.00
2023-06-25T19:21:21.052Z,29.10
2023-06-25T19:23:57.119Z,29.10
2023-06-25T19:26:30.759Z,29.10
2023-06-25T19:29:08.090Z,29.00
2023-06-25T19:31:44.955Z,29.00
2023-06-25T19:34:19.802Z,29.10
2023-06-25T19:36:55.223Z,29.10
2023-06-25T19:39:28.157Z,29.10
2023-06-25T19:42:01.759Z,29.10
2023-06-25T19:44:36.837Z,29.10
2023-06-25T19:47:12.009Z,29.00
2023-06-25T19:49:45.294Z,28.90
2023-06-25T19:52:18.514Z,28.60
2023-06-25T19:54:51.909Z,28.30
2023-06-25T19:57:26.482Z,28.10
2023-06-25T20:00:01.441Z,27.90
2023-06-25T20:02:34.752Z,27.70
2023-06-25T20:05:08.127Z,27.60
2023-06-25T20:07:41.696Z,27.50
2023-06-25T20:10:15.722Z,27.60
2023-06-25T20:12:50.861Z,27.80
2023-06-25T20:15:26.294Z,27.90
2023-06-25T20:18:00.153Z,28.10
2023-06-25T20:20:33.515Z,28.20
2023-06-25T20:23:06.919Z,28.30
2023-06-25T20:25:42.094Z,28.30
2023-06-25T20:28:15.389Z,28.20
2023-06-25T20:30:50.901Z,28.20
2023-06-25T20:33:24.458Z,28.30
2023-06-25T20:35:58.651Z,28.20
2023-06-25T20:38:32.007Z,28.30
2023-06-25T20:41:23.113Z,28.40
2023-06-25T20:43:58.535Z,28.40
2023-06-25T20:46:33.639Z,28.40
2023-06-25T20:49:07.091Z,28.40
2023-06-25T20:51:40.455Z,28.30
2023-06-25T20:54:13.740Z,28.30
2023-06-25T20:56:49.036Z,28.20
2023-06-25T20:59:23.538Z,27.80
2023-06-25T21:02:08.809Z,27.90
2023-06-25T21:04:41.832Z,28.00
2023-06-25T21:07:14.758Z,27.90
2023-06-25T21:09:47.636Z,28.00
2023-06-25T21:12:20.578Z,28.00
2023-06-25T21:14:54.539Z,28.10
2023-06-25T21:17:32.290Z,28.10
2023-06-25T21:20:06.884Z,28.10
2023-06-25T21:22:42.530Z,27.90
2023-06-25T21:25:16.208Z,28.10
2023-06-25T21:27:49.734Z,27.90
2023-06-25T21:30:25.111Z,27.90
2023-06-25T21:33:02.460Z,28.00
2023-06-25T21:35:37.745Z,28.10
2023-06-25T21:38:11.392Z,28.00
2023-06-25T21:40:44.809Z,28.10
2023-06-25T21:43:18.090Z,28.10
2023-06-25T21:45:51.228Z,28.10
2023-06-25T21:48:25.945Z,28.00
2023-06-25T21:51:01.238Z,28.00
2023-06-25T21:53:36.677Z,28.00
2023-06-25T21:56:10.118Z,28.00
2023-06-25T21:58:45.119Z,27.90
2023-06-25T22:01:18.760Z,27.90
2023-06-25T22:03:53.865Z,27.90
2023-06-25T22:06:29.882Z,27.90
2023-06-25T22:09:06.466Z,27.90
2023-06-25T22:11:39.241Z,28.00
2023-06-25T22:14:12.476Z,28.00
2023-06-25T22:16:45.774Z,28.10
2023-06-25T22:19:22.766Z,28.10
2023-06-25T22:21:56.223Z,28.10
2023-06-25T22:24:29.206Z,28.20
2023-06-25T22:27:02.406Z,28.20
2023-06-25T22:29:42.455Z,28.30
2023-06-25T22:32:17.077Z,28.40
2023-06-25T22:34:52.282Z,28.50
2023-06-25T22:37:25.518Z,28.80
2023-06-25T22:40:00.922Z,29.10
2023-06-25T22:42:34.137Z,29.50
2023-06-25T22:45:07.183Z,29.90
2023-06-25T22:47:41.457Z,29.10
2023-06-25T22:50:17.777Z,28.60
2023-06-25T22:52:52.132Z,28.60
2023-06-25T22:55:27.599Z,28.70
2023-06-25T22:58:02.315Z,28.80
2023-06-25T23:00:37.605Z,29.00
2023-06-25T23:03:11.317Z,28.80
2023-06-25T23:05:47.449Z,28.60
2023-06-25T23:08:20.606Z,28.60
2023-06-25T23:10:53.641Z,29.20
2023-06-25T23:13:29.716Z,29.70
2023-06-25T23:16:05.760Z,30.00
2023-06-25T23:18:39.120Z,29.90
2023-06-25T23:21:14.939Z,29.30
2023-06-25T23:23:49.162Z,29.00
2023-06-25T23:26:24.494Z,28.90
2023-06-25T23:28:58.496Z,28.90
2023-06-25T23:31:32.677Z,28.80
2023-06-25T23:34:06.123Z,28.90
2023-06-25T23:36:41.302Z,28.80
2023-06-25T23:39:15.273Z,28.60
2023-06-25T23:41:49.045Z,28.90
2023-06-25T23:44:22.365Z,29.10
2023-06-25T23:46:55.682Z,29.20
2023-06-25T23:49:29.358Z,29.50
2023-06-25T23:52:05.768Z,29.70
2023-06-25T23:54:40.950Z,30.30
2023-06-25T23:57:14.276Z,31.10
2023-06-25T23:59:47.717Z,31.80
